createdAt,value
2022-10-08T00:00:31.787Z,9.711654
2022-10-08T00:01:30.825Z,9.711654
2022-10-08T00:02:30.765Z,9.711688
2022-10-08T00:03:30.758Z,9.711685
2022-10-08T00:04:30.811Z,9.711649
2022-10-08T00:05:30.752Z,9.711637
2022-10-08T00:06:30.777Z,9.711663
2022-10-08T00:07:30.717Z,9.711685
2022-10-08T00:08:30.723Z,9.711667
2022-10-08T00:09:30.721Z,9.711659
2022-10-08T00:10:31.295Z,9.711614
2022-10-08T00:11:30.690Z,9.711621
2022-10-08T00:12:30.681Z,9.711695
2022-10-08T00:13:31.294Z,9.711615
2022-10-08T00:14:30.682Z,9.711664
2022-10-08T00:15:30.660Z,9.711555
2022-10-08T00:16:30.725Z,9.711669
2022-10-08T00:17:30.648Z,9.711600
2022-10-08T00:18:30.651Z,9.711561
2022-10-08T00:19:30.634Z,9.711550
2022-10-08T00:20:30.626Z,9.711517
2022-10-08T00:21:30.614Z,9.711562
2022-10-08T00:22:30.614Z,9.711528
2022-10-08T00:23:30.600Z,9.711451
2022-10-08T00:24:30.597Z,9.711491
2022-10-08T00:25:30.581Z,9.711557
2022-10-08T00:26:30.573Z,9.711555
2022-10-08T00:27:30.568Z,9.711630
2022-10-08T00:28:30.693Z,9.711586
2022-10-08T00:40:31.504Z,9.711509
2022-10-08T00:41:31.490Z,9.711491
2022-10-08T00:42:31.481Z,9.711502
2022-10-08T00:43:31.476Z,9.711573
2022-10-08T00:44:31.461Z,9.711598
2022-10-08T00:45:31.518Z,9.711571
2022-10-08T00:46:31.449Z,9.711597
2022-10-08T00:47:31.447Z,9.711647
2022-10-08T00:48:31.423Z,9.711453
2022-10-08T00:49:32.422Z,9.711557
2022-10-08T00:50:31.425Z,9.711665
2022-10-08T00:51:31.407Z,9.711583
2022-10-08T00:52:31.401Z,9.711625
2022-10-08T00:53:31.391Z,9.711761
2022-10-08T00:54:31.395Z,9.711677
2022-10-08T00:55:31.388Z,9.711566
2022-10-08T00:56:31.370Z,9.711606
2022-10-08T00:57:31.368Z,9.711544
2022-10-08T00:58:31.362Z,9.711643
2022-10-08T00:59:31.346Z,9.711727
2022-10-08T01:00:31.421Z,9.711742
2022-10-08T01:01:31.330Z,9.711792
2022-10-08T01:02:31.401Z,9.711703
2022-10-08T01:03:31.307Z,9.711740
2022-10-08T01:04:31.312Z,9.711677
2022-10-08T01:05:31.308Z,9.711722
2022-10-08T01:06:31.285Z,9.711754
2022-10-08T01:07:31.288Z,9.711434
2022-10-08T01:08:31.269Z,9.711825
2022-10-08T01:09:31.265Z,9.711640
2022-10-08T01:10:31.260Z,9.711703
2022-10-08T01:11:31.243Z,9.711721
2022-10-08T01:12:31.897Z,9.711742
2022-10-08T01:13:31.222Z,9.711626
2022-10-08T01:14:31.962Z,9.711434
2022-10-08T01:15:31.229Z,9.711516
2022-10-08T01:16:31.262Z,9.711566
2022-10-08T01:17:31.195Z,9.711568
2022-10-08T01:18:31.200Z,9.711565
2022-10-08T01:19:31.276Z,9.711576
2022-10-08T01:20:31.195Z,9.711689
2022-10-08T01:21:31.157Z,9.711705
2022-10-08T01:22:31.151Z,9.711778
2022-10-08T01:23:31.152Z,9.711601
2022-10-08T01:24:31.133Z,9.711558
2022-10-08T01:25:31.122Z,9.711548
2022-10-08T01:26:31.123Z,9.711590
2022-10-08T01:27:31.106Z,9.711699
2022-10-08T01:28:31.266Z,9.711705
2022-10-08T01:29:31.964Z,9.711774
2022-10-08T01:30:31.092Z,9.711787
2022-10-08T01:31:31.197Z,9.711925
2022-10-08T01:32:31.073Z,9.711892
2022-10-08T01:33:31.063Z,9.711925
2022-10-08T01:34:31.051Z,9.711844
2022-10-08T01:35:31.043Z,9.711915
2022-10-08T01:36:31.042Z,9.712084
2022-10-08T01:37:31.029Z,9.712213
2022-10-08T01:38:31.011Z,9.712261
2022-10-08T01:39:31.008Z,9.712555
2022-10-08T01:40:31.000Z,9.712136
2022-10-08T01:41:31.027Z,9.712413
2022-10-08T01:42:30.980Z,9.712511
2022-10-08T01:43:30.968Z,9.712629
2022-10-08T01:44:30.962Z,9.712384
2022-10-08T01:45:31.068Z,9.712525
2022-10-08T01:46:30.944Z,9.712345
2022-10-08T01:47:30.965Z,9.712089
2022-10-08T01:48:30.937Z,9.712234
2022-10-08T01:49:30.930Z,9.712377
2022-10-08T01:50:30.942Z,9.712050
2022-10-08T01:51:30.925Z,9.712055
2022-10-08T01:52:30.910Z,9.712204
2022-10-08T01:53:30.898Z,9.712372
2022-10-08T01:54:30.888Z,9.712493
2022-10-08T01:55:30.956Z,9.712326
2022-10-08T01:56:30.862Z,9.712310
2022-10-08T01:57:30.863Z,9.712334
2022-10-08T01:58:30.860Z,9.712438
2022-10-08T01:59:30.845Z,9.712487
2022-10-08T02:00:30.869Z,9.712547
2022-10-08T02:01:30.873Z,9.712503
2022-10-08T02:02:30.921Z,9.712326
2022-10-08T02:03:30.806Z,9.712057
2022-10-08T02:04:30.809Z,9.711693
2022-10-08T02:05:31.361Z,9.711567
2022-10-08T02:06:30.799Z,9.711620
2022-10-08T02:07:30.775Z,9.711566
2022-10-08T02:08:30.771Z,9.711522
2022-10-08T02:09:30.765Z,9.711543
2022-10-08T02:10:30.754Z,9.711523
2022-10-08T02:11:30.754Z,9.711504
2022-10-08T02:12:30.740Z,9.711517
2022-10-08T02:13:30.724Z,9.711509
2022-10-08T02:14:30.720Z,9.711613
2022-10-08T02:15:30.739Z,9.711529
2022-10-08T02:16:30.777Z,9.711545
2022-10-08T02:17:31.702Z,9.711613
2022-10-08T02:18:30.692Z,9.711665
2022-10-08T02:19:30.687Z,9.711542
2022-10-08T02:20:30.668Z,9.711605
2022-10-08T02:21:30.663Z,9.711722
2022-10-08T02:22:30.657Z,9.711700
2022-10-08T02:23:30.643Z,9.711749
2022-10-08T02:24:30.652Z,9.711701
2022-10-08T02:25:34.423Z,9.711699
2022-10-08T02:26:30.616Z,9.711802
2022-10-08T02:27:30.611Z,9.711617
2022-10-08T02:28:30.658Z,9.711650
2022-10-08T02:29:30.591Z,9.711880
2022-10-08T02:30:30.600Z,9.711947
2022-10-08T02:31:30.609Z,9.711929
2022-10-08T02:32:30.587Z,9.711692
2022-10-08T02:33:30.577Z,9.711629
2022-10-08T02:34:30.577Z,9.711686
2022-10-08T02:35:30.555Z,9.711509
2022-10-08T02:36:30.545Z,9.711478
2022-10-08T02:37:30.533Z,9.711618
2022-10-08T02:38:31.443Z,9.711832
2022-10-08T02:39:30.528Z,9.711721
2022-10-08T02:40:30.566Z,9.711797
2022-10-08T02:41:30.511Z,9.711640
2022-10-08T02:42:30.503Z,9.711779
2022-10-08T02:43:30.496Z,9.711712
2022-10-08T02:44:30.476Z,9.711675
2022-10-08T02:45:30.514Z,9.711699
2022-10-08T02:46:30.460Z,9.711724
2022-10-08T02:47:30.455Z,9.711677
2022-10-08T02:48:30.452Z,9.711677
2022-10-08T02:49:30.443Z,9.711671
2022-10-08T02:50:30.432Z,9.711662
2022-10-08T02:51:30.431Z,9.711649
2022-10-08T02:52:30.421Z,9.711701
2022-10-08T02:53:30.408Z,9.711732
2022-10-08T02:54:30.396Z,9.711700
2022-10-08T02:55:30.394Z,9.711646
2022-10-08T02:56:30.385Z,9.711678
2022-10-08T03:01:37.483Z,9.711473
2022-10-08T03:02:37.495Z,9.711561
2022-10-08T03:03:37.412Z,9.711618
2022-10-08T03:04:37.405Z,9.711619
2022-10-08T03:05:37.393Z,9.711588
2022-10-08T03:06:37.388Z,9.711596
2022-10-08T03:07:37.389Z,9.711654
2022-10-08T03:08:37.385Z,9.711723
2022-10-08T03:09:37.357Z,9.711646
2022-10-08T03:10:37.344Z,9.711563
2022-10-08T03:11:37.344Z,9.711526
2022-10-08T03:12:37.333Z,9.711574
2022-10-08T03:13:37.322Z,9.711600
2022-10-08T03:14:37.315Z,9.711570
2022-10-08T03:15:37.311Z,9.711535
2022-10-08T03:16:38.147Z,9.711563
2022-10-08T03:17:37.296Z,9.711574
2022-10-08T03:18:37.298Z,9.711552
2022-10-08T03:19:37.273Z,9.711591
2022-10-08T03:20:37.268Z,9.711649
2022-10-08T03:21:37.280Z,9.711580
2022-10-08T03:22:37.250Z,9.711599
2022-10-08T03:23:37.246Z,9.711531
2022-10-08T03:24:37.233Z,9.711590
2022-10-08T03:25:37.227Z,9.711661
2022-10-08T03:26:37.226Z,9.711606
2022-10-08T03:27:37.216Z,9.711578
2022-10-08T03:28:37.245Z,9.711602
2022-10-08T03:29:37.202Z,9.711602
2022-10-08T03:30:37.230Z,9.711613
2022-10-08T03:31:37.178Z,9.711747
2022-10-08T03:32:37.168Z,9.711704
2022-10-08T03:33:37.179Z,9.711733
2022-10-08T03:34:37.160Z,9.711616
2022-10-08T03:35:37.151Z,9.711487
2022-10-08T03:36:37.136Z,9.711500
2022-10-08T03:37:37.130Z,9.711441
2022-10-08T03:38:37.129Z,9.711474
2022-10-08T03:39:37.113Z,9.711518
2022-10-08T03:40:37.104Z,9.711574
2022-10-08T03:41:37.097Z,9.711557
2022-10-08T03:42:37.108Z,9.711530
2022-10-08T03:43:37.093Z,9.711616
2022-10-08T03:44:37.081Z,9.711652
2022-10-08T03:45:37.064Z,9.711573
2022-10-08T03:46:37.097Z,9.711543
2022-10-08T03:47:37.067Z,9.711686
2022-10-08T03:48:37.061Z,9.711523
2022-10-08T03:49:37.034Z,9.711548
2022-10-08T03:50:37.028Z,9.711609
2022-10-08T03:51:37.589Z,9.711598
2022-10-08T03:52:37.011Z,9.711446
2022-10-08T03:53:37.050Z,9.711509
2022-10-08T03:54:36.992Z,9.711502
2022-10-08T03:55:36.989Z,9.711655
2022-10-08T03:56:36.984Z,9.711559
2022-10-08T03:57:36.966Z,9.711469
2022-10-08T03:58:36.969Z,9.711396
2022-10-08T03:59:36.963Z,9.711484
2022-10-08T04:00:36.950Z,9.711465
2022-10-08T04:01:37.022Z,9.711653
2022-10-08T04:02:36.967Z,9.711714
2022-10-08T04:03:36.922Z,9.711530
2022-10-08T04:04:36.922Z,9.711486
2022-10-08T04:05:36.919Z,9.711442
2022-10-08T04:06:36.898Z,9.711620
2022-10-08T04:07:37.516Z,9.711516
2022-10-08T04:08:36.877Z,9.711544
2022-10-08T04:09:36.884Z,9.711553
2022-10-08T04:10:36.868Z,9.711514
2022-10-08T04:11:37.599Z,9.711535
2022-10-08T04:12:36.877Z,9.711491
2022-10-08T04:13:36.837Z,9.711678
2022-10-08T04:14:36.839Z,9.711622
2022-10-08T04:15:36.871Z,9.711809
2022-10-08T04:16:36.817Z,9.711617
2022-10-08T04:17:36.807Z,9.711751
2022-10-08T04:18:37.594Z,9.711714
2022-10-08T04:19:36.792Z,9.711710
2022-10-08T04:20:36.782Z,9.711689
2022-10-08T04:21:36.786Z,9.711662
2022-10-08T04:22:36.773Z,9.711655
2022-10-08T04:23:36.774Z,9.711669
2022-10-08T04:24:36.760Z,9.711687
2022-10-08T04:25:36.755Z,9.711671
2022-10-08T04:26:36.735Z,9.711671
2022-10-08T04:27:36.730Z,9.711654
2022-10-08T04:28:38.909Z,9.711639
2022-10-08T04:29:37.722Z,9.711658
2022-10-08T04:30:36.706Z,9.711618
2022-10-08T04:31:36.709Z,9.711619
2022-10-08T04:32:36.687Z,9.711638
2022-10-08T04:33:36.695Z,9.711609
2022-10-08T04:34:36.687Z,9.711627
2022-10-08T04:35:36.668Z,9.711649
2022-10-08T04:36:36.675Z,9.711663
2022-10-08T04:37:36.655Z,9.711637
2022-10-08T04:38:36.650Z,9.711649
2022-10-08T04:39:36.636Z,9.711715
2022-10-08T04:40:36.628Z,9.711753
2022-10-08T04:41:36.634Z,9.711725
2022-10-08T04:42:36.609Z,9.711712
2022-10-08T04:43:36.611Z,9.711653
2022-10-08T04:44:36.596Z,9.711713
2022-10-08T04:45:36.587Z,9.711975
2022-10-08T04:46:36.713Z,9.711968
2022-10-08T04:47:36.569Z,9.711845
2022-10-08T04:48:36.562Z,9.711979
2022-10-08T04:49:36.549Z,9.711884
2022-10-08T04:50:36.549Z,9.711783
2022-10-08T04:51:36.548Z,9.711938
2022-10-08T04:52:36.548Z,9.711818
2022-10-08T04:53:36.523Z,9.712052
2022-10-08T04:54:36.530Z,9.711985
2022-10-08T04:55:36.506Z,9.712038
2022-10-08T04:56:36.510Z,9.711959
2022-10-08T04:57:36.507Z,9.711940
2022-10-08T04:58:36.494Z,9.712012
2022-10-08T04:59:45.062Z,9.712008
2022-10-08T05:00:37.476Z,9.711997
2022-10-08T05:01:36.511Z,9.712019
2022-10-08T05:02:36.572Z,9.712000
2022-10-08T05:03:36.448Z,9.712052
2022-10-08T05:04:36.435Z,9.711906
2022-10-08T05:05:36.432Z,9.711910
2022-10-08T05:06:36.424Z,9.712006
2022-10-08T05:07:36.431Z,9.712054
2022-10-08T05:08:36.408Z,9.712034
2022-10-08T05:09:36.395Z,9.711926
2022-10-08T05:10:36.397Z,9.711846
2022-10-08T05:11:36.410Z,9.711667
2022-10-08T05:12:36.382Z,9.711639
2022-10-08T05:13:36.374Z,9.711605
2022-10-08T05:14:36.354Z,9.711574
2022-10-08T05:15:36.415Z,9.711591
2022-10-08T05:16:36.343Z,9.711583
2022-10-08T05:17:36.326Z,9.711636
2022-10-08T05:18:36.325Z,9.711620
2022-10-08T05:19:36.335Z,9.711663
2022-10-08T05:20:36.311Z,9.711612
2022-10-08T05:21:36.333Z,9.711679
2022-10-08T05:22:36.291Z,9.711718
2022-10-08T05:23:36.290Z,9.711735
2022-10-08T05:24:36.282Z,9.711652
2022-10-08T05:25:36.272Z,9.711630
2022-10-08T05:26:56.961Z,9.711662
2022-10-08T05:27:38.279Z,9.711679
2022-10-08T05:28:36.371Z,9.711710
2022-10-08T05:29:36.243Z,9.711703
2022-10-08T05:30:36.236Z,9.711697
2022-10-08T05:31:36.346Z,9.711727
2022-10-08T05:32:37.034Z,9.711682
2022-10-08T05:33:36.202Z,9.711692
2022-10-08T05:34:36.199Z,9.711653
2022-10-08T05:35:36.202Z,9.711663
2022-10-08T05:36:36.172Z,9.711689
2022-10-08T05:37:36.172Z,9.711665
2022-10-08T05:38:36.159Z,9.711692
2022-10-08T05:39:36.173Z,9.711684
2022-10-08T05:40:36.147Z,9.711759
2022-10-08T05:41:36.133Z,9.711769
2022-10-08T05:42:36.126Z,9.711692
2022-10-08T05:43:36.116Z,9.711680
2022-10-08T05:44:37.714Z,9.711691
2022-10-08T05:45:37.118Z,9.711641
2022-10-08T05:46:36.127Z,9.711647
2022-10-08T05:47:36.083Z,9.711766
2022-10-08T05:48:36.073Z,9.711730
2022-10-08T05:49:36.617Z,9.711721
2022-10-08T05:50:36.073Z,9.711736
2022-10-08T05:51:36.052Z,9.711697
2022-10-08T05:52:36.047Z,9.711723
2022-10-08T05:53:36.036Z,9.711686
2022-10-08T05:54:36.040Z,9.711767
2022-10-08T05:55:36.015Z,9.711764
2022-10-08T05:56:36.032Z,9.711718
2022-10-08T05:57:36.003Z,9.711733
2022-10-08T05:58:35.992Z,9.711703
2022-10-08T05:59:35.981Z,9.711681
2022-10-08T06:00:35.976Z,9.711685
2022-10-08T06:01:35.975Z,9.711693
2022-10-08T06:02:36.045Z,9.711628
2022-10-08T06:03:35.955Z,9.711669
2022-10-08T06:04:35.970Z,9.711718
2022-10-08T06:05:35.941Z,9.711784
2022-10-08T06:06:35.944Z,9.711599
2022-10-08T06:07:35.923Z,9.711673
2022-10-08T06:08:35.909Z,9.711659
2022-10-08T06:09:35.906Z,9.711709
2022-10-08T06:10:35.895Z,9.711693
2022-10-08T06:11:35.898Z,9.711720
2022-10-08T06:12:35.879Z,9.711680
2022-10-08T06:13:35.891Z,9.711699
2022-10-08T06:14:35.865Z,9.711727
2022-10-08T06:15:35.854Z,9.711660
2022-10-08T06:16:35.932Z,9.711671
2022-10-08T06:17:35.849Z,9.711620
2022-10-08T06:18:35.835Z,9.711646
2022-10-08T06:19:35.838Z,9.711660
2022-10-08T06:20:35.810Z,9.711692
2022-10-08T06:21:35.810Z,9.711671
2022-10-08T06:22:35.794Z,9.711716
2022-10-08T06:23:35.790Z,9.711636
2022-10-08T06:24:36.505Z,9.711625
2022-10-08T06:25:35.770Z,9.711605
2022-10-08T06:26:36.416Z,9.711636
2022-10-08T06:27:37.546Z,9.711642
2022-10-08T06:28:35.807Z,9.711624
2022-10-08T06:29:35.734Z,9.711646
2022-10-08T06:30:35.722Z,9.711681
2022-10-08T06:31:36.862Z,9.711725
2022-10-08T06:32:35.715Z,9.711696
2022-10-08T06:33:35.713Z,9.711699
2022-10-08T06:34:35.695Z,9.711662
2022-10-08T06:35:35.717Z,9.711691
2022-10-08T06:36:35.681Z,9.711708
2022-10-08T06:37:35.667Z,9.711736
2022-10-08T06:38:35.728Z,9.711643
2022-10-08T06:39:35.767Z,9.711624
2022-10-08T06:40:35.651Z,9.711677
2022-10-08T06:41:35.644Z,9.711633
2022-10-08T06:42:35.631Z,9.711628
2022-10-08T06:43:35.620Z,9.711616
2022-10-08T06:44:35.610Z,9.711676
2022-10-08T06:45:35.609Z,9.711696
2022-10-08T06:46:35.676Z,9.711637
2022-10-08T06:47:35.589Z,9.711646
2022-10-08T06:48:35.577Z,9.711738
2022-10-08T06:49:35.574Z,9.711757
2022-10-08T06:50:35.575Z,9.711639
2022-10-08T06:51:35.571Z,9.711750
2022-10-08T06:52:35.584Z,9.711795
2022-10-08T06:53:35.546Z,9.711821
2022-10-08T06:54:35.531Z,9.711732
2022-10-08T06:55:35.531Z,9.711715
2022-10-08T06:56:35.533Z,9.711727
2022-10-08T06:57:35.514Z,9.711704
2022-10-08T06:58:35.504Z,9.711512
2022-10-08T06:59:35.502Z,9.711549
2022-10-08T07:00:35.597Z,9.711795
2022-10-08T07:01:35.913Z,9.711654
2022-10-08T07:02:35.576Z,9.711727
2022-10-08T07:03:35.462Z,9.711804
2022-10-08T07:04:35.453Z,9.711613
2022-10-08T07:05:35.451Z,9.711748
2022-10-08T07:06:35.446Z,9.711791
2022-10-08T07:07:35.435Z,9.712026
2022-10-08T07:08:35.414Z,9.712065
2022-10-08T07:09:35.422Z,9.712005
2022-10-08T07:10:35.398Z,9.711738
2022-10-08T07:11:35.421Z,9.711803
2022-10-08T07:12:35.383Z,9.711762
2022-10-08T07:13:35.376Z,9.711737
2022-10-08T07:14:35.370Z,9.711741
2022-10-08T07:15:35.358Z,9.711913
2022-10-08T07:16:35.403Z,9.711831
2022-10-08T07:17:35.374Z,9.711796
2022-10-08T07:18:35.334Z,9.711975
2022-10-08T07:19:35.326Z,9.711832
2022-10-08T07:20:35.328Z,9.711804
2022-10-08T07:21:35.311Z,9.711885
2022-10-08T07:22:35.312Z,9.711884
2022-10-08T07:23:35.300Z,9.711807
2022-10-08T07:24:35.288Z,9.711711
2022-10-08T07:25:35.279Z,9.711573
2022-10-08T07:26:35.276Z,9.711666
2022-10-08T07:27:35.277Z,9.711861
2022-10-08T07:28:35.272Z,9.711683
2022-10-08T07:29:35.252Z,9.711722
2022-10-08T07:30:35.250Z,9.711884
2022-10-08T07:31:35.326Z,9.711772
2022-10-08T07:32:36.061Z,9.711712
2022-10-08T07:33:35.210Z,9.711752
2022-10-08T07:34:35.214Z,9.711694
2022-10-08T07:35:35.216Z,9.711675
2022-10-08T07:36:35.195Z,9.711818
2022-10-08T07:37:35.179Z,9.711982
2022-10-08T07:38:35.179Z,9.711926
2022-10-08T07:39:35.162Z,9.712142
2022-10-08T07:40:35.159Z,9.711819
2022-10-08T07:41:35.152Z,9.711726
2022-10-08T07:42:35.144Z,9.711737
2022-10-08T07:43:35.148Z,9.711761
2022-10-08T07:44:35.123Z,9.711732
2022-10-08T07:45:35.153Z,9.711737
2022-10-08T07:46:35.132Z,9.711685
2022-10-08T07:47:35.111Z,9.711686
2022-10-08T07:48:35.097Z,9.711718
2022-10-08T07:49:35.080Z,9.711741
2022-10-08T07:50:36.079Z,9.711751
2022-10-08T07:51:35.068Z,9.711698
2022-10-08T07:52:35.058Z,9.711699
2022-10-08T07:53:35.063Z,9.711713
2022-10-08T07:54:35.049Z,9.711740
2022-10-08T07:55:35.033Z,9.711668
2022-10-08T07:56:35.033Z,9.711725
2022-10-08T07:57:35.021Z,9.711680
2022-10-08T07:58:35.011Z,9.711653
2022-10-08T07:59:35.022Z,9.711721
2022-10-08T08:00:35.043Z,9.711705
2022-10-08T08:01:34.982Z,9.711681
2022-10-08T08:02:35.023Z,9.711732
2022-10-08T08:03:35.583Z,9.711741
2022-10-08T08:04:34.964Z,9.711704
2022-10-08T08:05:34.950Z,9.711717
2022-10-08T08:06:34.945Z,9.711736
2022-10-08T08:07:34.938Z,9.711713
2022-10-08T08:08:34.937Z,9.711780
2022-10-08T08:09:34.919Z,9.711712
2022-10-08T08:10:34.913Z,9.711756
2022-10-08T08:11:34.911Z,9.711787
2022-10-08T08:12:34.917Z,9.711766
2022-10-08T08:13:37.199Z,9.711727
2022-10-08T08:14:37.589Z,9.711689
2022-10-08T08:15:34.870Z,9.711763
2022-10-08T08:16:34.953Z,9.711809
2022-10-08T08:17:34.872Z,9.711817
2022-10-08T08:18:34.842Z,9.711808
2022-10-08T08:19:34.841Z,9.711850
2022-10-08T08:20:34.824Z,9.711905
2022-10-08T08:21:34.825Z,9.711863
2022-10-08T08:22:34.815Z,9.711864
2022-10-08T08:23:34.805Z,9.711745
2022-10-08T08:24:36.576Z,9.711746
2022-10-08T08:25:34.785Z,9.711760
2022-10-08T08:26:34.773Z,9.711769
2022-10-08T08:27:34.773Z,9.711809
2022-10-08T08:28:35.712Z,9.711799
2022-10-08T08:29:35.759Z,9.711952
2022-10-08T08:30:34.747Z,9.711986
2022-10-08T08:31:34.942Z,9.711812
2022-10-08T08:32:34.738Z,9.711828
2022-10-08T08:33:34.722Z,9.711909
2022-10-08T08:34:34.721Z,9.711971
2022-10-08T08:35:34.703Z,9.712050
2022-10-08T08:36:34.700Z,9.711879
2022-10-08T08:37:34.692Z,9.711766
2022-10-08T08:38:34.677Z,9.711827
2022-10-08T08:39:34.683Z,9.711868
2022-10-08T08:40:34.673Z,9.711864
2022-10-08T08:41:34.665Z,9.711887
2022-10-08T08:42:34.651Z,9.711834
2022-10-08T08:43:34.679Z,9.711881
2022-10-08T08:44:34.651Z,9.712091
2022-10-08T08:45:46.355Z,9.712481
2022-10-08T08:46:35.646Z,9.712089
2022-10-08T08:47:34.614Z,9.711995
2022-10-08T08:48:34.604Z,9.712012
2022-10-08T08:49:35.083Z,9.712036
2022-10-08T08:50:35.584Z,9.712175
2022-10-08T08:51:34.587Z,9.712182
2022-10-08T08:52:34.576Z,9.712336
2022-10-08T08:53:34.587Z,9.712197
2022-10-08T08:54:34.567Z,9.712261
2022-10-08T08:55:34.571Z,9.712441
2022-10-08T08:56:34.544Z,9.712292
2022-10-08T08:57:34.532Z,9.712116
2022-10-08T08:58:34.543Z,9.712090
2022-10-08T08:59:34.538Z,9.711968
2022-10-08T09:00:34.510Z,9.711985
2022-10-08T09:01:34.574Z,9.712278
2022-10-08T09:02:35.162Z,9.712111
2022-10-08T09:03:34.499Z,9.712053
2022-10-08T09:04:34.498Z,9.711979
2022-10-08T09:05:34.620Z,9.711769
2022-10-08T09:06:34.467Z,9.711640
2022-10-08T09:07:34.461Z,9.711596
2022-10-08T09:08:34.468Z,9.711782
2022-10-08T09:09:35.165Z,9.711726
2022-10-08T09:10:34.437Z,9.711770
2022-10-08T09:11:34.447Z,9.711580
2022-10-08T09:12:34.427Z,9.711448
2022-10-08T09:13:34.424Z,9.711535
2022-10-08T09:14:34.403Z,9.711643
2022-10-08T09:15:35.174Z,9.711595
2022-10-08T09:16:35.133Z,9.711478
2022-10-08T09:17:34.376Z,9.711513
2022-10-08T09:18:34.376Z,9.711539
2022-10-08T09:19:34.370Z,9.711567
2022-10-08T09:20:39.328Z,9.711428
2022-10-08T09:21:36.369Z,9.711427
2022-10-08T09:22:34.349Z,9.711440
2022-10-08T09:23:34.339Z,9.711354
2022-10-08T09:24:34.327Z,9.711448
2022-10-08T09:25:34.318Z,9.711566
2022-10-08T09:26:34.313Z,9.711497
2022-10-08T09:27:34.301Z,9.711658
2022-10-08T09:28:34.354Z,9.711584
2022-10-08T09:29:34.281Z,9.711532
2022-10-08T09:30:34.372Z,9.711650
2022-10-08T09:31:34.322Z,9.711683
2022-10-08T09:32:34.268Z,9.711710
2022-10-08T09:33:34.303Z,9.711700
2022-10-08T09:34:34.271Z,9.711725
2022-10-08T09:35:34.237Z,9.711684
2022-10-08T09:36:34.232Z,9.711812
2022-10-08T09:37:34.232Z,9.711626
2022-10-08T09:38:34.223Z,9.711706
2022-10-08T09:39:34.218Z,9.711783
2022-10-08T09:40:34.202Z,9.711731
2022-10-08T09:41:35.099Z,9.711690
2022-10-08T09:42:34.176Z,9.711823
2022-10-08T09:43:34.167Z,9.711833
2022-10-08T09:44:34.174Z,9.711923
2022-10-08T09:45:34.153Z,9.711906
2022-10-08T09:46:34.147Z,9.711895
2022-10-08T09:47:34.140Z,9.711780
2022-10-08T09:48:34.130Z,9.711738
2022-10-08T09:49:34.137Z,9.711481
2022-10-08T09:50:34.119Z,9.711479
2022-10-08T09:51:34.161Z,9.711316
2022-10-08T09:52:34.102Z,9.711171
2022-10-08T09:53:34.093Z,9.711648
2022-10-08T09:54:34.085Z,9.711460
2022-10-08T09:55:34.087Z,9.711019
2022-10-08T09:56:34.071Z,9.710840
2022-10-08T09:57:34.063Z,9.710709
2022-10-08T09:58:34.066Z,9.711142
2022-10-08T09:59:34.051Z,9.711734
2022-10-08T10:00:34.040Z,9.711726
2022-10-08T10:01:34.099Z,9.711804
2022-10-08T10:02:34.022Z,9.711874
2022-10-08T10:03:34.052Z,9.711783
2022-10-08T10:04:34.011Z,9.711782
2022-10-08T10:05:34.000Z,9.711871
2022-10-08T10:06:33.997Z,9.711926
2022-10-08T10:07:33.982Z,9.711892
2022-10-08T10:08:34.693Z,9.711925
2022-10-08T10:09:33.968Z,9.711917
2022-10-08T10:10:33.966Z,9.711811
2022-10-08T10:11:33.953Z,9.711782
2022-10-08T10:12:33.944Z,9.711872
2022-10-08T10:13:33.934Z,9.711932
2022-10-08T10:14:33.933Z,9.711905
2022-10-08T10:15:33.945Z,9.711987
2022-10-08T10:16:34.036Z,9.712083
2022-10-08T10:17:33.903Z,9.712134
2022-10-08T10:18:33.887Z,9.712103
2022-10-08T10:19:33.898Z,9.712005
2022-10-08T10:20:33.869Z,9.711835
2022-10-08T10:21:33.870Z,9.711691
2022-10-08T10:22:33.855Z,9.711677
2022-10-08T10:23:33.858Z,9.711687
2022-10-08T10:24:34.710Z,9.711744
2022-10-08T10:25:33.842Z,9.711712
2022-10-08T10:26:33.824Z,9.711606
2022-10-08T10:27:33.811Z,9.711554
2022-10-08T10:28:33.895Z,9.711605
2022-10-08T10:29:33.810Z,9.711705
2022-10-08T10:30:33.832Z,9.711657
2022-10-08T10:31:33.779Z,9.711626
2022-10-08T10:32:33.794Z,9.711576
2022-10-08T10:33:33.772Z,9.711606
2022-10-08T10:34:33.764Z,9.711555
2022-10-08T10:35:33.757Z,9.711562
2022-10-08T10:36:33.740Z,9.711655
2022-10-08T10:37:33.738Z,9.711630
2022-10-08T10:38:33.718Z,9.711611
2022-10-08T10:39:34.695Z,9.711657
2022-10-08T10:40:33.718Z,9.711734
2022-10-08T10:41:33.696Z,9.711624
2022-10-08T10:42:33.701Z,9.711717
2022-10-08T10:43:33.687Z,9.711712
2022-10-08T10:44:33.691Z,9.711648
2022-10-08T10:45:33.679Z,9.711677
2022-10-08T10:46:33.715Z,9.711710
2022-10-08T10:47:33.649Z,9.711857
2022-10-08T10:48:33.644Z,9.711857
2022-10-08T10:49:33.631Z,9.711724
2022-10-08T10:50:33.632Z,9.711899
2022-10-08T10:51:33.623Z,9.711725
2022-10-08T10:52:33.627Z,9.711768
2022-10-08T10:53:33.600Z,9.711656
2022-10-08T10:54:33.602Z,9.711639
2022-10-08T10:55:33.619Z,9.711641
2022-10-08T10:56:33.573Z,9.711685
2022-10-08T10:57:33.581Z,9.711655
2022-10-08T10:58:33.564Z,9.711648
2022-10-08T10:59:33.554Z,9.711622
2022-10-08T11:00:33.580Z,9.711610
2022-10-08T11:01:33.631Z,9.711583
2022-10-08T11:02:33.562Z,9.711702
2022-10-08T11:03:33.520Z,9.711629
2022-10-08T11:04:33.513Z,9.711586
2022-10-08T11:05:33.542Z,9.711604
2022-10-08T11:06:33.498Z,9.711553
2022-10-08T11:07:33.557Z,9.711559
2022-10-08T11:08:34.122Z,9.711712
2022-10-08T11:09:35.127Z,9.711625
2022-10-08T11:10:33.466Z,9.711655
2022-10-08T11:11:33.481Z,9.711679
2022-10-08T11:12:33.471Z,9.711657
2022-10-08T11:13:33.443Z,9.711690
2022-10-08T11:14:33.439Z,9.711708
2022-10-08T11:15:33.473Z,9.711713
2022-10-08T11:16:33.418Z,9.711592
2022-10-08T11:17:33.435Z,9.711697
2022-10-08T11:18:33.411Z,9.711748
2022-10-08T11:19:33.426Z,9.711756
2022-10-08T11:20:33.389Z,9.711910
2022-10-08T11:21:33.391Z,9.711860
2022-10-08T11:22:33.378Z,9.711848
2022-10-08T11:23:33.362Z,9.711929
2022-10-08T11:24:33.357Z,9.711702
2022-10-08T11:25:44.903Z,9.711463
2022-10-08T11:26:35.342Z,9.711524
2022-10-08T11:27:33.346Z,9.711727
2022-10-08T11:28:33.418Z,9.711830
2022-10-08T11:29:34.139Z,9.711851
2022-10-08T11:30:33.308Z,9.711634
2022-10-08T11:31:33.299Z,9.711531
2022-10-08T11:32:33.292Z,9.711519
2022-10-08T11:33:33.297Z,9.711453
2022-10-08T11:34:33.274Z,9.711481
2022-10-08T11:35:33.275Z,9.711480
2022-10-08T11:36:33.389Z,9.711472
2022-10-08T11:37:33.252Z,9.711471
2022-10-08T11:38:33.252Z,9.711494
2022-10-08T11:39:33.220Z,9.711514
2022-10-08T11:40:34.236Z,9.711549
2022-10-08T11:41:33.219Z,9.711572
2022-10-08T11:42:37.912Z,9.711657
2022-10-08T11:43:35.211Z,9.711620
2022-10-08T11:44:33.211Z,9.711562
2022-10-08T11:45:33.194Z,9.711583
2022-10-08T11:46:33.237Z,9.711582
2022-10-08T11:47:33.172Z,9.711521
2022-10-08T11:48:33.173Z,9.711555
2022-10-08T11:49:33.714Z,9.711418
2022-10-08T11:50:33.143Z,9.711556
2022-10-08T11:51:33.156Z,9.711422
2022-10-08T11:52:33.140Z,9.711364
2022-10-08T11:53:33.125Z,9.711422
2022-10-08T11:54:33.146Z,9.711478
2022-10-08T11:55:33.107Z,9.711535
2022-10-08T11:56:33.105Z,9.711621
2022-10-08T11:57:49.339Z,9.711558
2022-10-08T11:58:35.091Z,9.711899
2022-10-08T11:59:33.069Z,9.711718